Time;durP1;ratioP1;P1;durP2;ratioP2;P2;SDS_P1;SDS_P2;PMS_P1;PMS_P2;Temp;Humidity;BMP_temperature;BMP_pressure;BME280_temperature;BME280_humidity;BME280_pressure;Samples;Min_cycle;Max_cycle;Signal;HPM_P1;HPM_P2
2022/07/24 00:00:48;;;;;;;21.07;18.87;;;20.40;99.90;;;;;;5072633;28;20461;-67
2022/07/24 00:03:15;;;;;;;20.30;18.43;;;20.30;99.90;;;;;;5073434;28;20453;-68
2022/07/24 00:05:42;;;;;;;19.97;18.10;;;20.40;99.90;;;;;;5072895;28;20490;-68
2022/07/24 00:08:09;;;;;;;19.00;17.30;;;20.40;99.90;;;;;;5073432;28;20454;-68
2022/07/24 00:10:37;;;;;;;18.97;17.27;;;20.40;99.90;;;;;;5072014;28;20457;-66
2022/07/24 00:13:04;;;;;;;20.30;18.60;;;20.40;99.90;;;;;;5071872;28;20451;-67
2022/07/24 00:15:31;;;;;;;20.67;18.87;;;20.40;99.90;;;;;;5071746;28;20463;-67
2022/07/24 00:17:58;;;;;;;21.73;19.70;;;20.30;99.90;;;;;;5072904;28;20998;-67
2022/07/24 00:20:25;;;;;;;20.17;18.33;;;20.40;99.90;;;;;;5071224;28;20442;-68
2022/07/24 00:22:51;;;;;;;22.07;20.10;;;20.40;99.90;;;;;;5072007;28;20455;-65
2022/07/24 00:25:18;;;;;;;21.83;19.93;;;20.40;99.90;;;;;;5071597;28;20883;-68
2022/07/24 00:27:46;;;;;;;22.37;20.27;;;20.40;99.90;;;;;;5071986;28;20450;-68
2022/07/24 00:30:14;;;;;;;22.60;20.50;;;20.30;99.90;;;;;;5070549;28;21027;-68
2022/07/24 00:32:41;;;;;;;21.30;19.30;;;20.20;99.90;;;;;;5072196;28;20538;-68
2022/07/24 00:35:08;;;;;;;21.37;17.80;;;20.20;99.90;;;;;;5072170;28;20470;-68
2022/07/24 00:37:35;;;;;;;21.07;19.20;;;20.20;99.90;;;;;;5072143;28;20454;-68
2022/07/24 00:40:01;;;;;;;21.70;19.90;;;20.10;99.90;;;;;;5071348;28;20971;-68
2022/07/24 00:42:28;;;;;;;22.67;20.67;;;20.10;99.90;;;;;;5072365;28;20542;-68
2022/07/24 00:44:56;;;;;;;22.03;20.03;;;20.00;99.90;;;;;;5071540;28;20996;-68
2022/07/24 00:47:23;;;;;;;23.10;20.87;;;19.90;99.90;;;;;;5072018;28;20872;-68
2022/07/24 00:49:50;;;;;;;22.97;20.80;;;19.90;99.90;;;;;;5071565;28;20443;-68
2022/07/24 00:52:17;;;;;;;22.23;19.97;;;19.90;99.90;;;;;;5071927;28;20451;-67
2022/07/24 00:54:45;;;;;;;23.43;21.33;;;19.90;99.90;;;;;;5071443;28;21013;-68
2022/07/24 00:57:12;;;;;;;22.10;20.00;;;19.80;99.90;;;;;;5071744;28;20443;-68
2022/07/24 00:59:39;;;;;;;21.67;19.80;;;19.80;99.90;;;;;;5071604;28;20477;-67
2022/07/24 01:02:07;;;;;;;21.97;20.07;;;19.70;99.90;;;;;;5071241;28;20470;-69
2022/07/24 01:04:34;;;;;;;22.27;20.17;;;19.70;99.90;;;;;;5071121;28;20964;-68
2022/07/24 01:07:00;;;;;;;22.67;20.53;;;19.70;99.90;;;;;;5071983;28;20462;-67
2022/07/24 01:09:27;;;;;;;21.63;19.70;;;19.70;99.90;;;;;;5071783;28;20443;-68
2022/07/24 01:11:55;;;;;;;21.93;19.93;;;19.60;99.90;;;;;;5070689;28;20961;-67
2022/07/24 01:14:22;;;;;;;22.30;20.10;;;19.60;99.90;;;;;;5070923;28;20843;-68
2022/07/24 01:16:48;;;;;;;22.03;19.93;;;19.60;99.90;;;;;;5071712;28;20454;-69
2022/07/24 01:19:17;;;;;;;21.90;20.00;;;19.40;99.90;;;;;;5071446;28;20518;-67
2022/07/24 01:21:49;;;;;;;20.53;18.80;;;19.40;99.90;;;;;;5070653;28;20567;-67
2022/07/24 01:24:15;;;;;;;21.40;19.60;;;19.50;99.90;;;;;;5071146;28;20496;-68
2022/07/24 01:26:43;;;;;;;22.00;20.00;;;19.50;99.90;;;;;;5071386;28;20485;-69
2022/07/24 01:29:10;;;;;;;20.67;18.90;;;19.50;99.90;;;;;;5071171;28;20458;-68
2022/07/24 01:31:37;;;;;;;20.83;18.90;;;19.50;99.90;;;;;;5070578;28;20458;-68
2022/07/24 01:34:04;;;;;;;21.47;19.60;;;19.40;99.90;;;;;;5071116;28;21026;-69
2022/07/24 01:36:31;;;;;;;20.37;18.57;;;19.40;99.90;;;;;;5070726;28;20482;-68
2022/07/24 01:38:59;;;;;;;23.60;21.50;;;19.40;99.90;;;;;;5071244;28;20454;-68
2022/07/24 01:41:26;;;;;;;22.93;20.63;;;19.40;99.90;;;;;;5069805;28;20454;-66
2022/07/24 01:43:53;;;;;;;22.73;20.40;;;19.30;99.90;;;;;;5071123;28;20453;-68
2022/07/24 01:46:20;;;;;;;20.87;19.07;;;19.30;99.90;;;;;;5070825;28;20861;-68
2022/07/24 01:48:47;;;;;;;22.10;20.10;;;19.30;99.90;;;;;;5071164;28;20451;-70
2022/07/24 01:51:13;;;;;;;21.60;19.50;;;19.20;99.90;;;;;;5070060;28;20451;-68
2022/07/24 01:53:40;;;;;;;22.93;20.93;;;19.20;99.90;;;;;;5070837;28;20455;-68
2022/07/24 01:56:08;;;;;;;22.77;20.73;;;19.10;99.90;;;;;;5070286;28;20463;-68
2022/07/24 01:58:35;;;;;;;21.90;19.73;;;19.00;99.90;;;;;;5070592;28;20443;-67
2022/07/24 02:01:02;;;;;;;23.43;21.27;;;18.90;99.90;;;;;;5069986;28;20455;-68
2022/07/24 02:03:29;;;;;;;22.47;20.27;;;18.90;99.90;;;;;;5070610;28;20439;-67
2022/07/24 02:05:56;;;;;;;21.93;19.93;;;19.00;99.90;;;;;;5070280;28;20487;-67
2022/07/24 02:08:23;;;;;;;24.60;22.17;;;18.90;99.90;;;;;;5069625;28;20447;-67
2022/07/24 02:10:49;;;;;;;23.37;21.17;;;18.90;99.90;;;;;;5069494;28;20447;-67
2022/07/24 02:13:18;;;;;;;21.90;20.10;;;18.80;99.90;;;;;;5070507;28;20447;-67
2022/07/24 02:15:44;;;;;;;24.37;21.97;;;18.70;99.90;;;;;;5069579;28;20473;-67
2022/07/24 02:18:11;;;;;;;22.20;20.27;;;18.70;99.90;;;;;;5070360;28;20834;-67
2022/07/24 02:20:38;;;;;;;22.20;20.10;;;18.60;99.90;;;;;;5069326;28;20443;-67
2022/07/24 02:23:05;;;;;;;22.80;20.70;;;18.60;99.90;;;;;;5070174;28;20455;-67
2022/07/24 02:25:32;;;;;;;20.60;18.70;;;18.60;99.90;;;;;;5069818;28;20501;-67
2022/07/24 02:27:58;;;;;;;20.83;18.93;;;18.70;99.90;;;;;;5070352;28;20454;-68
2022/07/24 02:30:27;;;;;;;22.73;20.80;;;18.70;99.90;;;;;;5069233;28;20444;-66
2022/07/24 02:32:54;;;;;;;23.00;20.90;;;18.60;99.90;;;;;;5070269;28;20486;-66
2022/07/24 02:35:20;;;;;;;24.97;22.60;;;18.60;99.90;;;;;;5069614;28;20467;-66
2022/07/24 02:37:47;;;;;;;23.43;21.23;;;18.70;99.90;;;;;;5070059;28;20458;-66
2022/07/24 02:40:15;;;;;;;21.87;19.77;;;18.70;99.90;;;;;;5069380;28;20461;-66
2022/07/24 02:42:42;;;;;;;21.80;19.87;;;18.70;99.90;;;;;;5070125;28;20513;-66
2022/07/24 02:45:10;;;;;;;23.30;21.20;;;18.60;99.90;;;;;;5069634;28;20471;-66
2022/07/24 02:47:47;;;;;;;23.23;21.03;;;18.50;99.90;;;;;;5069875;28;20508;-66
2022/07/24 02:50:14;;;;;;;22.43;20.43;;;18.50;99.90;;;;;;5069376;28;20522;-66
2022/07/24 02:52:41;;;;;;;25.33;22.90;;;18.50;99.90;;;;;;5069219;28;20443;-66
2022/07/24 02:55:09;;;;;;;23.60;21.50;;;18.40;99.90;;;;;;5069529;28;20459;-66
2022/07/24 02:57:36;;;;;;;24.50;22.30;;;18.30;99.90;;;;;;5069800;28;20443;-67
2022/07/24 03:00:06;;;;;;;21.67;19.67;;;18.30;99.90;;;;;;5068920;28;20945;-67
2022/07/24 03:02:33;;;;;;;23.60;21.27;;;18.20;99.90;;;;;;5069624;28;20451;-66
2022/07/24 03:05:01;;;;;;;22.87;20.57;;;18.10;99.90;;;;;;5069211;28;20844;-66
2022/07/24 03:07:28;;;;;;;22.40;20.40;;;18.20;99.90;;;;;;5070377;28;20482;-67
2022/07/24 03:09:55;;;;;;;23.13;21.23;;;18.20;99.90;;;;;;5068998;28;20450;-67
2022/07/24 03:12:22;;;;;;;24.50;22.23;;;18.10;99.90;;;;;;5069622;28;20455;-66
2022/07/24 03:14:49;;;;;;;23.10;21.07;;;18.10;99.90;;;;;;5069285;28;20813;-66
2022/07/24 03:17:15;;;;;;;22.00;20.00;;;18.10;99.90;;;;;;5069402;28;20453;-66
2022/07/24 03:19:42;;;;;;;23.47;21.47;;;18.10;99.90;;;;;;5058222;28;20459;-66
2022/07/24 03:22:10;;;;;;;23.33;21.30;;;18.00;99.90;;;;;;5052028;28;20455;-66
2022/07/24 03:24:37;;;;;;;22.63;20.50;;;18.00;99.90;;;;;;5049056;28;20834;-66
2022/07/24 03:27:04;;;;;;;24.53;22.13;;;18.00;99.90;;;;;;5049364;28;20494;-66
2022/07/24 03:29:31;;;;;;;24.13;21.60;;;17.90;99.90;;;;;;5049251;28;20448;-66
2022/07/24 03:31:57;;;;;;;22.83;20.87;;;17.90;99.90;;;;;;5048860;28;20451;-67
2022/07/24 03:34:24;;;;;;;24.70;22.43;;;17.90;99.90;;;;;;5049000;28;20452;-66
2022/07/24 03:36:51;;;;;;;22.43;20.23;;;17.90;99.90;;;;;;5049437;28;20455;-66
2022/07/24 03:39:19;;;;;;;24.73;22.40;;;18.00;99.90;;;;;;5049341;28;20474;-66
2022/07/24 03:41:46;;;;;;;23.10;21.00;;;18.00;99.90;;;;;;5048551;28;20496;-66
2022/07/24 03:44:13;;;;;;;23.77;21.67;;;17.90;99.90;;;;;;5049158;28;20456;-65
2022/07/24 03:46:40;;;;;;;24.47;22.23;;;17.80;99.90;;;;;;5049503;28;20515;-66
2022/07/24 03:49:07;;;;;;;25.30;23.07;;;17.70;99.90;;;;;;5049383;28;20448;-66
2022/07/24 03:51:35;;;;;;;23.27;21.27;;;17.70;99.90;;;;;;5048435;28;20934;-65
2022/07/24 03:54:02;;;;;;;23.87;21.57;;;17.70;99.90;;;;;;5049160;28;20452;-66
2022/07/24 03:56:30;;;;;;;24.57;22.30;;;17.70;99.90;;;;;;5048712;28;20533;-64
2022/07/24 03:58:57;;;;;;;24.80;22.60;;;17.70;99.90;;;;;;5049007;28;20455;-66
2022/07/24 04:01:24;;;;;;;22.80;20.80;;;17.70;99.90;;;;;;5048480;28;20487;-66
2022/07/24 04:03:51;;;;;;;24.27;21.97;;;17.70;99.90;;;;;;5051517;28;20452;-66
2022/07/24 04:06:18;;;;;;;23.53;21.30;;;17.80;99.90;;;;;;5052713;28;20487;-66
2022/07/24 04:08:45;;;;;;;23.80;21.40;;;17.90;99.90;;;;;;5052871;28;20455;-66
2022/07/24 04:11:11;;;;;;;22.37;20.00;;;17.90;99.90;;;;;;5051764;28;20475;-66
2022/07/24 04:13:40;;;;;;;24.97;22.77;;;17.90;99.90;;;;;;5052680;28;20455;-66
2022/07/24 04:16:07;;;;;;;23.23;21.20;;;17.90;99.90;;;;;;5052279;28;20464;-66
2022/07/24 04:18:34;;;;;;;22.70;20.70;;;17.90;99.90;;;;;;5052836;28;20454;-66
2022/07/24 04:21:00;;;;;;;22.37;20.37;;;17.90;99.90;;;;;;5051727;28;20444;-66
2022/07/24 04:23:27;;;;;;;23.23;21.03;;;17.90;99.90;;;;;;5052841;28;20439;-67
2022/07/24 04:25:54;;;;;;;22.80;20.70;;;17.90;99.90;;;;;;5051785;28;20989;-66
2022/07/24 04:28:21;;;;;;;23.97;21.57;;;17.90;99.90;;;;;;5052679;28;20440;-66
2022/07/24 04:30:49;;;;;;;25.87;23.40;;;18.00;99.90;;;;;;5051876;28;20455;-67
2022/07/24 04:33:16;;;;;;;23.17;21.00;;;18.10;99.90;;;;;;5052716;28;20448;-67
2022/07/24 04:35:42;;;;;;;22.50;20.50;;;18.10;99.90;;;;;;5052056;28;20555;-68
2022/07/24 04:38:09;;;;;;;22.90;20.70;;;18.10;99.90;;;;;;5052804;28;20448;-67
2022/07/24 04:40:36;;;;;;;22.40;20.40;;;18.20;99.90;;;;;;5051679;28;20452;-68
2022/07/24 04:43:03;;;;;;;22.83;20.73;;;18.30;99.90;;;;;;5052258;28;20448;-68
2022/07/24 04:45:30;;;;;;;22.13;20.10;;;18.40;99.90;;;;;;5052044;28;20460;-67
2022/07/24 04:47:58;;;;;;;23.53;21.47;;;18.50;99.90;;;;;;5052058;28;20476;-67
2022/07/24 04:50:25;;;;;;;22.53;20.47;;;18.50;99.90;;;;;;5051258;28;20962;-67
2022/07/24 04:52:52;;;;;;;22.70;20.70;;;18.60;99.90;;;;;;5051952;28;20452;-66
2022/07/24 04:55:18;;;;;;;23.77;21.70;;;18.60;99.90;;;;;;5051814;28;20476;-68
2022/07/24 04:57:45;;;;;;;21.70;19.50;;;18.60;99.90;;;;;;5051929;28;20455;-67
2022/07/24 05:00:14;;;;;;;23.43;21.27;;;18.70;99.90;;;;;;5051152;28;20443;-68
2022/07/24 05:02:41;;;;;;;22.77;20.70;;;18.70;99.90;;;;;;5051708;28;20972;-65
2022/07/24 05:05:10;;;;;;;21.40;19.47;;;18.70;99.90;;;;;;5051445;28;20460;-68
2022/07/24 05:07:36;;;;;;;21.67;19.77;;;18.80;99.90;;;;;;5051372;28;20487;-67
2022/07/24 05:10:07;;;;;;;21.53;19.53;;;18.90;99.90;;;;;;5051312;28;20448;-66
2022/07/24 05:12:34;;;;;;;24.10;21.90;;;19.00;99.90;;;;;;5051793;28;20474;-66
2022/07/24 05:15:01;;;;;;;20.73;18.77;;;19.00;99.90;;;;;;5050507;28;20864;-67
2022/07/24 05:17:27;;;;;;;21.93;19.90;;;19.10;99.90;;;;;;5051546;28;20444;-66
2022/07/24 05:19:54;;;;;;;22.07;20.07;;;19.10;99.90;;;;;;5050616;28;20675;-65
2022/07/24 05:22:22;;;;;;;22.90;20.63;;;19.10;99.90;;;;;;5051197;28;20452;-67
2022/07/24 05:24:49;;;;;;;22.60;20.60;;;19.10;99.90;;;;;;5050887;28;20468;-67
2022/07/24 05:27:16;;;;;;;22.40;20.40;;;19.20;99.90;;;;;;5051200;28;20491;-67
2022/07/24 05:29:43;;;;;;;21.87;19.90;;;19.20;99.90;;;;;;5051209;28;20448;-67
2022/07/24 05:32:10;;;;;;;21.17;19.37;;;19.20;99.90;;;;;;5050887;28;20444;-66
2022/07/24 05:34:37;;;;;;;20.90;18.80;;;19.30;99.90;;;;;;5050715;28;20451;-66
2022/07/24 05:37:04;;;;;;;22.30;20.03;;;19.40;99.90;;;;;;5051146;28;20448;-67
2022/07/24 05:39:32;;;;;;;20.70;18.80;;;19.40;99.90;;;;;;5050968;28;20821;-67
2022/07/24 05:41:58;;;;;;;21.10;19.00;;;19.60;99.90;;;;;;5050502;28;20835;-66
2022/07/24 05:44:25;;;;;;;22.00;20.10;;;19.60;99.90;;;;;;5050555;28;20783;-66
2022/07/24 05:46:55;;;;;;;19.53;17.83;;;19.70;99.90;;;;;;5051010;28;20480;-67
2022/07/24 05:49:22;;;;;;;21.10;19.00;;;19.80;99.90;;;;;;5050697;28;20448;-66
2022/07/24 05:51:49;;;;;;;22.13;20.23;;;19.90;99.90;;;;;;5050203;28;20540;-66
2022/07/24 05:54:16;;;;;;;21.33;19.30;;;19.90;99.90;;;;;;5050759;28;20479;-64
2022/07/24 05:56:44;;;;;;;19.67;17.97;;;20.00;99.90;;;;;;5050647;28;20468;-66
2022/07/24 05:59:11;;;;;;;21.23;19.27;;;20.10;99.90;;;;;;5050695;28;20444;-67
2022/07/24 06:01:37;;;;;;;21.03;19.13;;;20.30;99.90;;;;;;5049746;28;20444;-66
2022/07/24 06:04:04;;;;;;;21.53;19.33;;;20.40;99.90;;;;;;5050792;28;20495;-67
2022/07/24 06:06:31;;;;;;;21.30;19.40;;;20.50;99.90;;;;;;5050048;28;20491;-67
2022/07/24 06:08:58;;;;;;;20.60;18.83;;;20.50;99.90;;;;;;5050688;28;21079;-67
2022/07/24 06:11:25;;;;;;;19.93;18.07;;;20.60;99.90;;;;;;5049611;28;20447;-67
2022/07/24 06:13:53;;;;;;;20.20;18.20;;;20.70;99.90;;;;;;5050425;28;20952;-67
2022/07/24 06:16:20;;;;;;;21.03;19.23;;;20.80;99.90;;;;;;5049746;28;20840;-67
2022/07/24 06:18:47;;;;;;;20.17;18.50;;;20.90;99.90;;;;;;5050605;28;20448;-67
2022/07/24 06:21:14;;;;;;;18.70;17.20;;;21.00;99.90;;;;;;5049598;28;20456;-67
2022/07/24 06:23:40;;;;;;;19.27;17.67;;;21.10;99.90;;;;;;5050433;28;20448;-67
2022/07/24 06:26:07;;;;;;;19.37;17.67;;;21.20;99.90;;;;;;5049752;28;20468;-66
2022/07/24 06:28:34;;;;;;;18.83;17.23;;;21.30;99.90;;;;;;5050137;28;20452;-67
2022/07/24 06:31:02;;;;;;;18.57;16.97;;;21.30;99.90;;;;;;5049356;28;20470;-67
2022/07/24 06:33:29;;;;;;;19.70;17.87;;;21.40;99.90;;;;;;5049972;28;20452;-65
2022/07/24 06:35:56;;;;;;;19.43;17.73;;;21.60;99.90;;;;;;5049504;28;21232;-65
2022/07/24 06:38:22;;;;;;;18.47;16.77;;;21.70;99.90;;;;;;5049878;28;20942;-67
2022/07/24 06:40:50;;;;;;;17.43;16.03;;;21.80;99.90;;;;;;5049066;28;20513;-67
2022/07/24 06:43:16;;;;;;;17.83;16.23;;;21.90;99.90;;;;;;5049635;28;20970;-67
2022/07/24 06:45:43;;;;;;;18.67;17.07;;;22.00;99.90;;;;;;5049747;28;20582;-67
2022/07/24 06:48:12;;;;;;;18.50;16.90;;;22.10;99.90;;;;;;5049857;28;20494;-67
2022/07/24 06:50:38;;;;;;;18.93;17.47;;;22.10;99.90;;;;;;5049130;28;20852;-67
2022/07/24 06:53:05;;;;;;;16.30;14.97;;;22.20;99.90;;;;;;5049766;28;20447;-67
2022/07/24 06:55:32;;;;;;;19.07;17.30;;;22.30;99.90;;;;;;5049401;28;20474;-67
2022/07/24 06:57:59;;;;;;;17.70;16.00;;;22.40;99.90;;;;;;5049545;28;20452;-67
2022/07/24 07:00:26;;;;;;;18.23;16.53;;;22.50;99.90;;;;;;5049170;28;20452;-66
2022/07/24 07:02:53;;;;;;;16.07;14.63;;;22.60;99.90;;;;;;5049898;28;20460;-65
2022/07/24 07:05:21;;;;;;;16.80;15.50;;;22.70;99.90;;;;;;5049466;28;20474;-67
2022/07/24 07:07:48;;;;;;;15.93;14.70;;;22.80;99.90;;;;;;5049777;28;20850;-66
2022/07/24 07:10:15;;;;;;;16.20;14.70;;;22.90;99.90;;;;;;5049058;28;20450;-67
2022/07/24 07:12:42;;;;;;;16.30;14.90;;;23.00;99.90;;;;;;5049972;28;20474;-67
2022/07/24 07:15:11;;;;;;;16.97;15.37;;;23.20;99.90;;;;;;5049491;28;20467;-67
2022/07/24 07:17:39;;;;;;;15.37;14.03;;;23.30;99.90;;;;;;5049987;28;20444;-68
2022/07/24 07:20:07;;;;;;;15.83;14.60;;;23.40;99.90;;;;;;5048816;28;20463;-67
2022/07/24 07:22:35;;;;;;;14.33;13.13;;;23.50;99.90;;;;;;5049701;28;20455;-67
2022/07/24 07:25:02;;;;;;;15.67;14.30;;;23.60;99.90;;;;;;5048881;28;20468;-67
2022/07/24 07:27:29;;;;;;;16.83;15.07;;;23.70;99.90;;;;;;5049585;28;20487;-67
2022/07/24 07:29:55;;;;;;;16.00;14.57;;;23.80;99.90;;;;;;5048810;28;20817;-66
2022/07/24 07:32:22;;;;;;;16.63;15.13;;;24.00;99.90;;;;;;5049274;28;20452;-68
2022/07/24 07:34:50;;;;;;;16.23;14.80;;;24.10;99.90;;;;;;5048984;28;20510;-68
2022/07/24 07:37:17;;;;;;;16.43;14.73;;;24.10;99.90;;;;;;5049313;28;20492;-67
2022/07/24 07:39:45;;;;;;;15.60;14.27;;;24.20;99.90;;;;;;5052691;28;20455;-66
2022/07/24 07:42:12;;;;;;;14.97;13.77;;;24.30;99.90;;;;;;5053000;28;20832;-68
2022/07/24 07:44:38;;;;;;;15.03;13.63;;;24.50;99.90;;;;;;5053033;28;20599;-69
2022/07/24 07:47:05;;;;;;;15.20;14.00;;;24.60;99.90;;;;;;5053233;28;20694;-67
2022/07/24 07:49:32;;;;;;;14.73;13.57;;;24.80;99.90;;;;;;5053206;28;20850;-68
2022/07/24 07:51:59;;;;;;;14.53;13.23;;;24.90;99.90;;;;;;5052158;28;20456;-69
2022/07/24 07:54:26;;;;;;;14.80;13.50;;;25.00;99.90;;;;;;5052570;28;20450;-68
2022/07/24 07:56:54;;;;;;;14.53;13.33;;;25.20;99.90;;;;;;5053032;28;20463;-68
2022/07/24 07:59:21;;;;;;;13.80;12.60;;;25.40;99.90;;;;;;5053092;28;20845;-66
2022/07/24 08:01:48;;;;;;;14.03;12.83;;;25.60;99.90;;;;;;5051346;28;20799;-68
2022/07/24 08:04:15;;;;;;;13.27;12.23;;;25.70;99.90;;;;;;5052882;28;20459;-69
2022/07/24 08:06:41;;;;;;;14.43;13.20;;;25.60;99.90;;;;;;5052505;28;21011;-69
2022/07/24 08:09:08;;;;;;;13.33;11.90;;;25.50;99.90;;;;;;5053011;28;20440;-68
2022/07/24 08:11:35;;;;;;;14.03;12.90;;;25.60;99.90;;;;;;5051944;28;20443;-68
2022/07/24 08:14:03;;;;;;;12.90;12.00;;;25.60;99.90;;;;;;5052778;28;20443;-68
2022/07/24 08:16:30;;;;;;;13.50;12.40;;;25.60;99.90;;;;;;5052139;28;20997;-68
2022/07/24 08:18:57;;;;;;;13.57;12.50;;;25.60;99.90;;;;;;5052480;28;20950;-68
2022/07/24 08:21:24;;;;;;;12.97;11.87;;;25.60;99.90;;;;;;5051567;28;20450;-69
2022/07/24 08:23:50;;;;;;;13.70;12.50;;;25.70;99.90;;;;;;5052472;28;20951;-68
2022/07/24 08:26:17;;;;;;;12.40;11.40;;;25.80;99.90;;;;;;5052199;28;20464;-68
2022/07/24 08:28:44;;;;;;;12.60;11.50;;;25.80;99.90;;;;;;5052286;28;21212;-68
2022/07/24 08:31:13;;;;;;;13.23;12.03;;;25.80;99.90;;;;;;5051644;28;20447;-67
2022/07/24 08:33:39;;;;;;;12.00;10.90;;;25.80;99.90;;;;;;5052205;28;20986;-68
2022/07/24 08:36:07;;;;;;;12.90;11.60;;;26.00;99.90;;;;;;5052061;28;20475;-68
2022/07/24 08:38:34;;;;;;;12.13;11.13;;;26.10;99.90;;;;;;5052430;28;20537;-68
2022/07/24 08:41:01;;;;;;;13.23;12.10;;;26.20;99.90;;;;;;5051477;28;20440;-68
2022/07/24 08:43:28;;;;;;;12.00;11.00;;;26.40;99.90;;;;;;5052116;28;20451;-68
2022/07/24 08:45:56;;;;;;;11.77;10.80;;;26.50;99.90;;;;;;5051641;28;20464;-68
2022/07/24 08:48:25;;;;;;;12.20;11.20;;;26.60;99.90;;;;;;5052210;28;20533;-67
2022/07/24 08:50:52;;;;;;;11.80;10.57;;;26.80;99.90;;;;;;5050088;28;20828;-68
2022/07/24 08:53:21;;;;;;;12.30;11.30;;;27.00;99.90;;;;;;5052096;28;20448;-68
2022/07/24 08:55:48;;;;;;;13.23;11.10;;;27.20;99.90;;;;;;5051463;28;20464;-68
2022/07/24 08:58:14;;;;;;;11.87;10.87;;;27.40;99.90;;;;;;5052047;28;20444;-68
2022/07/24 09:00:42;;;;;;;11.83;10.70;;;27.50;99.90;;;;;;5050855;28;20444;-68
2022/07/24 09:03:08;;;;;;;11.83;10.73;;;27.40;99.90;;;;;;5052121;28;20452;-67
2022/07/24 09:05:53;;;;;;;13.53;11.40;;;27.40;99.90;;;;;;5051401;28;20460;-68
2022/07/24 09:08:20;;;;;;;12.30;11.20;;;27.20;99.90;;;;;;5051729;28;20484;-68
2022/07/24 09:10:55;;;;;;;11.03;10.13;;;27.20;99.90;;;;;;5050854;28;20815;-69
2022/07/24 09:13:27;;;;;;;12.30;11.33;;;27.30;99.90;;;;;;5051636;28;20921;-67
2022/07/24 09:15:54;;;;;;;11.97;10.80;;;27.50;99.90;;;;;;5051428;28;20460;-68
2022/07/24 09:18:31;;;;;;;11.20;10.30;;;27.70;99.90;;;;;;5051929;28;20432;-70
2022/07/24 09:21:11;;;;;;;11.63;10.63;;;27.80;99.90;;;;;;5050780;28;20440;-68
2022/07/24 09:23:39;;;;;;;11.00;10.03;;;28.00;98.50;;;;;;5051895;28;20443;-67
2022/07/24 09:26:06;;;;;;;10.10;9.20;;;28.10;98.70;;;;;;5051074;28;20463;-69
2022/07/24 09:28:47;;;;;;;9.90;9.10;;;28.20;97.90;;;;;;5051606;28;20471;-68
2022/07/24 09:31:14;;;;;;;11.00;10.20;;;28.50;97.00;;;;;;5050410;28;20436;-69
2022/07/24 09:33:41;;;;;;;10.63;9.73;;;28.60;96.10;;;;;;5051218;28;20440;-69
2022/07/24 09:36:14;;;;;;;11.00;9.70;;;28.50;96.00;;;;;;5050581;28;20468;-68
2022/07/24 09:38:47;;;;;;;10.80;9.80;;;28.40;95.80;;;;;;5051235;28;20467;-69
2022/07/24 09:41:20;;;;;;;10.47;9.43;;;28.30;96.10;;;;;;5054637;28;20452;-66
2022/07/24 09:43:58;;;;;;;9.57;8.77;;;28.50;96.00;;;;;;5062725;28;21170;-68
2022/07/24 09:46:26;;;;;;;10.70;9.57;;;28.60;95.80;;;;;;5066649;28;20470;-68
2022/07/24 09:48:56;;;;;;;10.43;9.53;;;28.70;95.90;;;;;;5065272;28;20490;-68
2022/07/24 09:51:26;;;;;;;10.80;9.80;;;28.80;94.80;;;;;;5062187;28;20471;-68
2022/07/24 09:53:55;;;;;;;10.83;9.93;;;29.00;94.30;;;;;;5070529;28;20443;-68
2022/07/24 09:56:22;;;;;;;9.07;8.37;;;29.30;93.60;;;;;;5070386;28;20467;-69
2022/07/24 09:58:52;;;;;;;9.70;9.00;;;29.80;94.20;;;;;;5070858;28;20453;-68
2022/07/24 10:01:22;;;;;;;9.40;8.60;;;30.50;92.40;;;;;;5069239;28;20455;-68
2022/07/24 10:03:50;;;;;;;10.10;9.30;;;31.30;91.30;;;;;;5065575;28;20832;-68
2022/07/24 10:06:20;;;;;;;9.73;8.83;;;32.10;89.10;;;;;;5064492;28;20495;-69
2022/07/24 10:08:50;;;;;;;8.97;8.27;;;32.90;89.30;;;;;;5056759;28;20501;-68
2022/07/24 10:11:18;;;;;;;8.93;8.23;;;33.10;86.90;;;;;;5060039;28;20450;-69
2022/07/24 10:13:46;;;;;;;8.60;8.00;;;32.90;80.30;;;;;;5064613;28;20522;-68
2022/07/24 10:16:32;;;;;;;9.73;8.93;;;32.00;84.80;;;;;;5059598;28;20558;-68
2022/07/24 10:18:59;;;;;;;9.00;8.20;;;31.90;84.90;;;;;;5064076;28;20498;-67
2022/07/24 10:21:28;;;;;;;9.33;8.53;;;32.40;80.70;;;;;;5059606;28;20443;-68
2022/07/24 10:24:21;;;;;;;9.37;8.63;;;32.20;84.20;;;;;;5062683;28;20510;-68
2022/07/24 10:26:50;;;;;;;9.37;8.47;;;32.70;83.50;;;;;;5062256;28;20455;-68
2022/07/24 10:29:18;;;;;;;9.63;8.73;;;33.40;80.20;;;;;;5060647;28;21233;-68
2022/07/24 10:31:46;;;;;;;10.00;9.00;;;33.90;78.40;;;;;;5059593;28;20451;-68
2022/07/24 10:34:22;;;;;;;8.73;7.93;;;33.80;77.30;;;;;;5056669;28;20458;-69
2022/07/24 10:36:58;;;;;;;10.70;9.70;;;33.40;74.40;;;;;;5062585;28;20454;-69
2022/07/24 10:39:32;;;;;;;10.20;9.30;;;32.60;76.10;;;;;;5059643;28;20532;-68
2022/07/24 10:42:03;;;;;;;9.77;8.87;;;32.20;77.50;;;;;;5065974;28;20443;-68
2022/07/24 10:44:30;;;;;;;9.40;8.30;;;32.60;77.30;;;;;;5061007;28;20443;-69
2022/07/24 10:46:59;;;;;;;10.47;9.67;;;33.20;77.60;;;;;;5068744;28;20443;-68
2022/07/24 10:49:43;;;;;;;9.00;8.20;;;33.90;76.10;;;;;;5068681;28;20494;-69
2022/07/24 10:52:12;;;;;;;9.80;9.00;;;34.70;75.10;;;;;;5063235;28;20446;-69
2022/07/24 10:54:41;;;;;;;8.10;7.40;;;35.50;68.30;;;;;;5067103;28;20439;-68
2022/07/24 10:57:08;;;;;;;8.50;7.80;;;36.10;70.70;;;;;;5067734;28;20447;-69
2022/07/24 10:59:37;;;;;;;8.20;7.53;;;36.00;70.30;;;;;;5068249;28;20447;-68
2022/07/24 11:02:27;;;;;;;9.10;8.20;;;36.60;69.30;;;;;;5067577;28;20450;-68
2022/07/24 11:05:33;;;;;;;9.60;8.80;;;37.10;63.60;;;;;;5064894;28;20986;-69
2022/07/24 11:08:33;;;;;;;9.27;8.57;;;37.10;64.10;;;;;;5063386;28;21029;-71
2022/07/24 11:11:09;;;;;;;9.10;8.40;;;36.90;59.70;;;;;;5053113;28;20435;-68
2022/07/24 11:13:50;;;;;;;8.90;8.20;;;35.90;61.70;;;;;;5068775;28;20446;-68
2022/07/24 11:16:19;;;;;;;8.50;7.80;;;35.00;65.70;;;;;;5068188;28;20543;-69
2022/07/24 11:19:20;;;;;;;10.10;9.13;;;34.80;67.10;;;;;;5065992;28;20451;-69
2022/07/24 11:21:48;;;;;;;8.80;8.10;;;35.60;67.50;;;;;;5063236;28;20460;-70
2022/07/24 11:24:19;;;;;;;10.57;7.73;;;35.90;62.10;;;;;;5069104;28;20535;-70
2022/07/24 11:26:53;;;;;;;10.90;8.33;;;36.20;61.40;;;;;;5068164;28;20455;-69
2022/07/24 11:29:23;;;;;;;8.43;7.83;;;35.80;63.30;;;;;;5062820;28;20471;-69
2022/07/24 11:31:51;;;;;;;8.40;7.70;;;36.00;62.80;;;;;;5056464;28;20451;-68
2022/07/24 11:34:18;;;;;;;7.87;7.27;;;36.00;60.10;;;;;;5062300;28;20447;-70
2022/07/24 11:36:47;;;;;;;8.63;7.93;;;35.20;64.00;;;;;;5057925;28;20461;-69
2022/07/24 11:39:15;;;;;;;8.63;8.03;;;34.70;65.80;;;;;;5061070;28;20912;-68
2022/07/24 11:41:46;;;;;;;9.27;8.57;;;34.20;66.60;;;;;;5058853;28;20447;-69
2022/07/24 11:44:14;;;;;;;9.10;8.40;;;33.90;65.00;;;;;;5066594;28;20439;-68
2022/07/24 11:46:42;;;;;;;10.30;9.40;;;32.90;67.20;;;;;;5061215;28;20955;-68
2022/07/24 11:49:10;;;;;;;10.70;9.60;;;32.40;69.00;;;;;;5059052;28;20479;-70
2022/07/24 11:51:44;;;;;;;10.17;9.37;;;31.50;70.60;;;;;;5058189;28;20447;-70
2022/07/24 11:54:12;;;;;;;10.90;10.10;;;31.10;73.90;;;;;;5053741;28;20810;-70
2022/07/24 11:56:39;;;;;;;9.30;8.60;;;31.50;73.00;;;;;;5061918;28;20478;-69
2022/07/24 11:59:06;;;;;;;8.90;8.20;;;32.30;72.10;;;;;;5062580;28;20443;-70
2022/07/24 12:01:34;;;;;;;8.80;8.20;;;33.00;69.60;;;;;;5054665;28;20447;-69
2022/07/24 12:04:01;;;;;;;9.80;9.00;;;34.10;69.10;;;;;;5063440;28;20803;-69
2022/07/24 12:06:28;;;;;;;8.77;8.00;;;35.10;65.30;;;;;;5055329;28;20464;-69
2022/07/24 12:08:59;;;;;;;10.27;9.07;;;35.60;65.00;;;;;;5068900;28;20475;-69
2022/07/24 12:11:25;;;;;;;8.70;8.00;;;36.40;60.20;;;;;;5065811;28;20443;-71
2022/07/24 12:13:53;;;;;;;9.50;8.73;;;36.60;60.20;;;;;;5068994;28;20443;-70
2022/07/24 12:16:25;;;;;;;8.93;8.13;;;36.80;59.50;;;;;;5067269;28;20497;-71
2022/07/24 12:18:53;;;;;;;8.63;7.97;;;36.80;58.70;;;;;;5063657;28;20438;-68
2022/07/24 12:21:20;;;;;;;9.00;8.30;;;37.30;59.40;;;;;;5067779;28;20929;-68
2022/07/24 12:23:47;;;;;;;9.37;8.00;;;37.40;56.20;;;;;;5068340;28;20450;-68
2022/07/24 12:26:13;;;;;;;9.20;8.40;;;37.40;56.20;;;;;;5071802;28;20470;-68
2022/07/24 12:28:40;;;;;;;7.80;7.20;;;37.70;58.70;;;;;;5071431;28;20475;-70
2022/07/24 12:31:09;;;;;;;8.97;8.17;;;38.20;58.20;;;;;;5071063;28;20446;-70
2022/07/24 12:33:35;;;;;;;8.57;7.60;;;38.60;54.30;;;;;;5069345;28;20447;-69
2022/07/24 12:36:10;;;;;;;8.77;8.07;;;38.30;56.40;;;;;;5069912;28;20536;-70